Latest Coastal Weather Observations for Wynyard

IDV60701

Issued at 1:02 pm EDT Wednesday 18 October 2017 (issued every 10 minutes, with the page automatically refreshed every 10 minutes)

About coastal observations | Map of coastal stations | Coastal observations for VIC | Marine services | Other Formats
Station Details ID: 091107 Name: WYNYARD AIRPORT Lat: -41.00 Lon: 145.73 Height: 12.0 m
Data from the previous 72 hours. | See also: Recent months at Wynyard
Date/Time
EDT
Temp
°C
Wind Pressure Rain since
9am
mm
Weather Cloud Vis
km
Sea
Height
m
Swell
Dir  Spd
kts
Gust
kts
hPa Trend Height
m
Period
s
Dir
18/01:00pm 18.3 ENE 7 10 1021.1 - 0.0 - Clear 10 - - - -
18/12:30pm 18.1 ENE 7 11 1021.5 - 0.0 - - 10 - - - -
18/12:00pm 18.5 ENE 7 11 1021.7 - 0.0 - - 10 - - - -
18/11:30am 18.5 ENE 7 10 1021.8 - 0.0 - - 10 - - - -
18/11:00am 19.1 E 7 10 1022.1 - 0.0 - - 10 - - - -
18/10:30am 19.3 E 7 9 1022.4 - 0.0 - - 10 - - - -
18/10:00am 18.5 E 6 8 1022.6 - 0.0 - - 10 - - - -
18/09:30am 17.9 E 7 10 1022.8 - 0.0 - - 10 - - - -
18/09:00am 17.2 NW 1 3 1022.8 - 0.0 - - 10 - - - -
18/08:30am 13.8 W 4 5 1022.6 - 0.0 - - 10 - - - -
18/08:00am 11.8 WNW 6 7 1022.6 - 0.0 - - 10 - - - -
18/07:30am 10.6 WNW 5 6 1022.3 - 0.0 - - 10 - - - -
18/07:00am 9.0 WNW 5 6 1022.0 - 0.0 - - 10 - - - -
18/06:30am 7.2 WNW 5 6 1021.8 - 0.0 - - 10 - - - -
18/06:00am 7.7 W 7 8 1021.5 - 0.0 - - 10 - - - -
18/05:30am 7.6 WNW 6 8 1021.4 - 0.0 - - 10 - - - -
18/05:00am 7.8 WNW 5 6 1021.5 - 0.0 - - 10 - - - -
18/04:30am 7.3 W 6 7 1021.5 - 0.0 - - 10 - - - -
18/04:00am 8.2 W 5 6 1021.7 - 0.0 - - 10 - - - -
18/03:30am 7.2 WSW 5 6 1021.7 - 0.0 - - 10 - - - -
18/03:00am 7.5 WSW 5 6 1022.0 - 0.0 - - 10 - - - -
18/02:30am 7.7 WSW 4 5 1022.1 - 0.0 - - 10 - - - -
18/02:00am 8.2 WNW 1 3 1022.1 - 0.0 - - 10 - - - -
18/01:30am 7.9 W 6 7 1022.8 - 0.0 - - 10 - - - -
18/01:00am 8.3 W 4 5 1022.7 - 0.0 - - 10 - - - -
18/12:30am 9.3 WNW 3 4 1022.9 - 0.0 - - 10 - - - -
18/12:00am 8.5 WSW 2 4 1023.2 - 0.0 - - 10 - - - -
 
Date/Time
EDT
Temp
°C
Wind Pressure Rain since
9am
mm
Weather Cloud Vis
km
Sea
Height
m
Swell
Dir  Spd
kts
Gust
kts
hPa Trend Height
m
Period
s
Dir
17/11:30pm 10.2 WNW 5 5 1023.4 - 0.0 - - 10 - - - -
17/11:00pm 10.2 W 4 5 1023.5 - 0.0 - - 10 - - - -
17/10:30pm 9.8 WSW 4 5 1023.7 - 0.0 - - 10 - - - -
17/10:00pm 10.6 WSW 3 5 1023.8 - 0.0 - - 10 - - - -
17/09:30pm 11.2 CALM 0 0 1023.7 - 0.0 - - 10 - - - -
17/09:00pm 12.0 WSW 1 5 1023.6 - 0.0 - - 10 - - - -
17/08:30pm 12.7 SW 4 4 1023.4 - 0.0 - - 10 - - - -
17/08:00pm 14.3 CALM 0 0 1023.0 - 0.0 - - 10 - - - -
17/07:30pm 16.0 E 1 3 1022.8 - 0.0 - - 10 - - - -
17/07:00pm 17.3 ENE 3 4 1022.6 - 0.0 - - 10 - - - -
17/06:30pm 18.0 ENE 3 4 1022.5 - 0.0 - - 10 - - - -
17/06:00pm 18.1 E 4 5 1022.4 - 0.0 - - 10 - - - -
17/05:30pm 17.8 NE 5 6 1022.4 - 0.0 - - 10 - - - -
17/05:00pm 17.5 NE 7 9 1022.7 - 0.0 - - 10 - - - -
17/04:30pm 17.8 NE 7 8 1022.6 - 0.0 - - 10 - - - -
17/04:00pm 19.2 ENE 5 9 1022.8 - 0.0 - - 10 - - - -
17/03:30pm 17.9 NE 5 6 1023.1 - 0.0 - - 10 - - - -
17/03:00pm 17.6 NE 4 6 1023.4 - 0.0 - - 10 - - - -
17/02:30pm 16.7 NNE 6 9 1023.7 - 0.0 - - 10 - - - -
17/02:00pm 16.3 NE 7 9 1023.8 - 0.0 - - 10 - - - -
17/01:30pm 17.0 NE 7 10 1023.7 - 0.0 - - 10 - - - -
17/01:00pm 17.0 NE 8 10 1023.9 - 0.0 - - 10 - - - -
17/12:30pm 16.4 ENE 7 11 1024.3 - 0.0 - - 10 - - - -
17/12:00pm 16.6 E 8 10 1024.3 - 0.0 - - 10 - - - -
17/11:30am 16.9 E 7 11 1024.4 - 0.0 - - 10 - - - -
17/11:00am 16.2 E 8 12 1024.6 - 0.0 - - 10 - - - -
17/10:30am 15.9 ENE 9 12 1024.6 - 0.0 - - 10 - - - -
17/10:00am 16.1 E 7 9 1024.4 - 0.0 - - 10 - - - -
17/09:30am 15.5 E 8 11 1024.3 - 0.0 - - 10 - - - -
17/09:00am 15.3 E 7 9 1024.4 - 0.0 - - 10 - - - -
17/08:30am 14.7 ESE 3 6 1024.5 - 0.0 - - 10 - - - -
17/08:00am 12.9 SSW 5 6 1024.4 - 0.0 - - 10 - - - -
17/07:30am 11.9 S 5 6 1024.2 - 0.0 - - 10 - - - -
17/07:00am 11.2 SSW 5 7 1023.9 - 0.0 - Partly cloudy 10 - - - -
17/06:30am 11.5 SSW 5 6 1023.7 - 0.0 - Cloudy 10 - - - -
17/06:00am 11.4 SSW 5 7 1023.6 - 0.0 - Cloudy 10 - - - -
17/05:30am 11.5 S 4 6 1023.5 - 0.0 - Cloudy 10 - - - -
17/05:00am 11.6 S 5 5 1023.6 - 0.0 - Cloudy 8 - - - -
17/04:44am 11.6 S 4 6 1023.7 - 0.0 - Cloudy 6 - - - -
17/04:30am 11.5 SSE 4 5 1023.7 - 0.0 - Cloudy 5 - - - -
17/04:00am 11.3 SSE 5 6 1023.8 - 0.0 - Cloudy 5 - - - -
17/03:30am 11.2 SE 5 7 1023.8 - 0.0 - Cloudy 2 - - - -
17/03:00am 11.1 SE 4 6 1024.0 - 0.0 - Cloudy 4 - - - -
17/02:30am 10.8 S 5 7 1024.5 - 0.0 - Cloudy 2 - - - -
17/02:00am 11.0 SE 3 4 1024.7 - 0.0 - Cloudy 2 - - - -
17/01:30am 11.0 SE 5 6 1025.2 - 0.0 - Cloudy 3 - - - -
17/01:16am 11.1 SE 4 4 1025.3 - 0.0 - Cloudy 5 - - - -
17/01:00am 11.0 SE 3 5 1025.3 - 0.0 - Cloudy 10 - - - -
17/12:30am 10.8 E 3 5 1025.1 - 0.0 - Cloudy 10 - - - -
17/12:00am 10.9 SSE 3 4 1025.3 - 0.0 - Cloudy 10 - - - -
 
Date/Time
EDT
Temp
°C
Wind Pressure Rain since
9am
mm
Weather Cloud Vis
km
Sea
Height
m
Swell
Dir  Spd
kts
Gust
kts
hPa Trend Height
m
Period
s
Dir
16/11:30pm 11.0 S 5 5 1025.4 - 0.0 - Cloudy 10 - - - -
16/11:00pm 10.8 SSW 2 4 1025.5 - 0.0 - Cloudy 10 - - - -
16/10:30pm 10.9 SSE 1 3 1025.5 - 0.0 - Cloudy 10 - - - -
16/10:00pm 10.8 SSE 4 5 1025.4 - 0.0 - Cloudy 10 - - - -
16/09:30pm 10.1 CALM 0 3 1025.3 - 0.0 - Cloudy 10 - - - -
16/09:00pm 9.3 SSE 3 4 1025.4 - 0.0 - Mostly cloudy 10 - - - -
16/08:30pm 9.5 SSE 2 4 1025.2 - 0.0 - Partly cloudy 10 - - - -
16/08:23pm 9.7 ESE 1 3 1025.2 - 0.0 - Partly cloudy 10 - - - -
16/08:00pm 10.4 ENE 3 4 1024.9 - 0.0 - - 10 - - - -
16/07:30pm 11.0 ENE 3 5 1024.7 - 0.0 - - 10 - - - -
16/07:00pm 11.7 ENE 4 6 1024.7 - 0.0 - - 10 - - - -
16/06:30pm 12.0 ENE 4 5 1024.7 - 0.0 - - 10 - - - -
16/06:00pm 12.1 NE 5 8 1024.8 - 0.0 - Mostly clear 10 - - - -
16/05:30pm 12.6 NNE 6 8 1025.0 - 0.0 - Partly cloudy 10 - - - -
16/05:00pm 12.5 NNE 8 10 1024.9 - 0.0 - Partly cloudy 10 - - - -
16/04:45pm 13.5 NE 7 10 1024.8 - 0.0 - Partly cloudy 10 - - - -
16/04:30pm 13.0 NE 7 9 1024.8 - 0.0 - Partly cloudy 10 - - - -
16/04:12pm 13.1 NE 8 11 1024.9 - 0.0 - Partly cloudy 10 - - - -
16/04:00pm 13.3 NE 9 11 1024.9 - 0.0 - Partly cloudy 10 - - - -
16/03:57pm 13.2 NE 9 11 1024.9 - 0.0 - Partly cloudy 10 - - - -
16/03:30pm 13.3 ENE 7 11 1025.0 - 0.0 - Cloudy 10 - - - -
16/03:00pm 13.7 ENE 7 9 1025.5 - 0.0 - Cloudy 10 - - - -
16/02:30pm 12.9 NE 7 9 1025.9 - 0.0 - Cloudy 10 - - - -
16/02:00pm 13.0 NE 9 11 1026.1 - 0.0 - Cloudy 10 - - - -
16/01:30pm 13.0 NE 9 11 1026.3 - 0.0 - Cloudy 10 - - - -
16/01:00pm 12.9 NE 9 11 1026.6 - 0.0 - Cloudy 10 - - - -
16/12:30pm 13.3 NE 8 11 1026.8 - 0.0 - Partly cloudy 10 - - - -
16/12:00pm 13.1 ENE 7 9 1026.9 - 0.0 - Cloudy 10 - - - -
16/11:30am 12.4 ENE 7 10 1027.2 - 0.0 - Cloudy 10 - - - -
16/11:00am 12.2 ENE 7 10 1027.3 - 0.0 - Partly cloudy 10 - - - -
16/10:33am 11.9 ENE 8 11 1027.4 - 0.0 - Partly cloudy 10 - - - -
16/10:30am 11.9 ENE 8 11 1027.4 - 0.0 - Partly cloudy 9 - - - -
16/10:22am 12.0 ENE 7 10 1027.4 - 0.0 - Partly cloudy 5 - - - -
16/10:10am 11.9 ENE 7 9 1027.3 - 0.0 - Partly cloudy 10 - - - -
16/10:00am 11.8 ENE 6 9 1027.4 - 0.0 - Partly cloudy 5 - - - -
16/09:57am 12.1 ENE 7 10 1027.3 - 0.0 - Partly cloudy 5 - - - -
16/09:30am 11.8 ENE 7 9 1027.2 - 0.0 - Cloudy 10 - - - -
16/09:11am 11.6 E 6 9 1027.1 - 0.0 - Partly cloudy 10 - - - -
16/09:00am 11.6 ENE 6 9 1027.1 - 0.0 - Cloudy 6 - - - -
16/08:30am 11.5 ENE 7 9 1027.1 - 0.0 - Cloudy 3 - - - -
16/08:00am 11.6 E 6 9 1026.8 - 0.0 - Partly cloudy 5 - - - -
16/07:30am 11.4 E 7 9 1026.6 - 0.0 - Partly cloudy 10 - - - -
16/07:01am 11.5 E 7 11 1026.4 - 0.0 - Partly cloudy 10 - - - -
16/07:00am 11.5 E 7 11 1026.4 - 0.0 - Partly cloudy 10 - - - -
16/06:30am 11.6 E 6 9 1026.0 - 0.0 - Partly cloudy 4 - - - -
16/06:00am 11.5 E 8 11 1025.7 - 0.0 - Cloudy 4 - - - -
16/05:30am 11.7 ESE 10 14 1025.5 - 0.0 - Partly cloudy 4 - - - -
16/05:00am 11.8 E 9 13 1025.5 - 0.0 - Cloudy 5 - - - -
16/04:43am 11.9 E 11 14 1025.5 - 0.0 - Cloudy 5 - - - -
16/04:30am 12.0 ESE 10 13 1025.5 - 0.0 - Cloudy 6 - - - -
16/04:00am 12.2 ESE 12 18 1025.4 - 0.0 - Cloudy 10 - - - -
16/03:30am 12.5 ESE 13 17 1025.3 - 0.0 - Cloudy 10 - - - -
16/03:00am 12.6 ESE 10 16 1025.1 - 0.0 - Cloudy 10 - - - -
16/02:30am 12.4 E 8 11 1025.2 - 0.0 - Partly cloudy 10 - - - -
16/02:25am 12.6 ESE 9 11 1025.1 - 0.0 - Partly cloudy 10 - - - -
16/02:00am 12.6 ESE 9 14 1025.1 - 0.0 - Partly cloudy 10 - - - -
16/01:30am 12.5 SE 8 10 1025.0 - 0.0 - - 10 - - - -
16/01:00am 11.7 SSE 6 8 1024.9 - 0.0 - - 10 - - - -
16/12:30am 11.5 SSE 5 7 1024.8 - 0.0 - - 10 - - - -
16/12:00am 12.8 ESE 9 12 1024.7 - 0.0 - - 10 - - - -
 
Date/Time
EDT
Temp
°C
Wind Pressure Rain since
9am
mm
Weather Cloud Vis
km
Sea
Height
m
Swell
Dir  Spd
kts
Gust
kts
hPa Trend Height
m
Period
s
Dir
15/11:30pm 12.7 ESE 10 15 1024.4 - 0.0 - - 10 - - - -
15/11:00pm 11.9 ENE 2 5 1024.1 - 0.0 - - 10 - - - -
15/10:30pm 12.9 ENE 5 7 1023.9 - 0.0 - - 10 - - - -
15/10:00pm 12.1 SW 3 5 1023.5 - 0.0 - - 10 - - - -
15/09:30pm 15.7 NW 2 5 1023.2 - 0.0 - - 10 - - - -
15/09:00pm 15.3 W 10 11 1022.8 - 0.0 - - 10 - - - -
15/08:30pm 13.6 WSW 6 7 1022.6 - 0.0 - - 10 - - - -
15/08:00pm 15.2 SW 6 6 1022.5 - 0.0 - - 10 - - - -
15/07:30pm 17.9 SW 5 6 1022.2 - 0.0 - - 10 - - - -
15/07:00pm 22.0 WSW 6 8 1021.9 - 0.0 - - 10 - - - -
15/06:30pm 23.5 SW 5 7 1021.8 - 0.0 - - 10 - - - -
15/06:00pm 24.0 SW 7 10 1021.6 - 0.0 - - 10 - - - -
15/05:30pm 24.2 SW 11 15 1021.5 - 0.0 - - 10 - - - -
15/05:00pm 24.5 S 9 12 1021.4 - 0.0 - - 10 - - - -
15/04:30pm 25.1 W 9 12 1021.3 - 0.0 - - 10 - - - -
15/04:00pm 24.4 W 11 15 1021.2 - 0.0 - - 10 - - - -
15/03:30pm 24.5 WNW 13 17 1021.4 - 0.0 - - 10 - - - -
15/03:00pm 23.8 WNW 12 16 1021.6 - 0.0 - - 10 - - - -
15/02:30pm 23.6 WNW 11 15 1021.9 - 0.0 - - 10 - - - -
15/02:00pm 23.2 WNW 11 15 1022.1 - 0.0 - - 10 - - - -
15/01:30pm 22.2 W 11 17 1022.3 - 0.0 - - 10 - - - -

Other Formats:

Comma delimited format used in spreadsheet applications
http://www.bom.gov.au/fwo/IDV60701/IDV60701.95957.axf

JavaScript Object Notation format (JSON) in row-major order
http://www.bom.gov.au/fwo/IDV60701/IDV60701.95957.json